createdAt,value
2022-10-31T00:04:17.969Z,2.20
2022-10-31T00:06:44.535Z,3.70
2022-10-31T00:09:11.946Z,2.78
2022-10-31T00:11:38.546Z,5.00
2022-10-31T00:14:05.657Z,3.08
2022-10-31T00:16:32.749Z,4.63
2022-10-31T00:19:03.250Z,1.85
2022-10-31T00:21:31.539Z,3.50
2022-10-31T00:23:59.715Z,3.17
2022-10-31T00:26:31.380Z,3.03
2022-10-31T00:28:59.011Z,2.88
2022-10-31T00:35:13.652Z,2.70
2022-10-31T00:37:40.602Z,5.65
2022-10-31T00:40:09.501Z,3.58
2022-10-31T00:42:42.633Z,3.30
2022-10-31T00:45:11.943Z,2.35
2022-10-31T00:47:39.205Z,4.20
2022-10-31T00:50:08.088Z,6.32
2022-10-31T00:52:34.836Z,12.20
2022-10-31T00:55:01.544Z,2.75
2022-10-31T00:57:28.494Z,3.53
2022-10-31T00:59:55.017Z,6.15
2022-10-31T01:02:21.616Z,3.78
2022-10-31T01:04:48.189Z,6.15
2022-10-31T01:07:15.100Z,2.35
2022-10-31T01:09:42.143Z,9.05
2022-10-31T01:12:09.556Z,3.38
2022-10-31T01:14:36.562Z,2.60
2022-10-31T01:17:03.148Z,5.53
2022-10-31T01:19:29.685Z,7.10
2022-10-31T01:21:56.577Z,3.35
2022-10-31T01:24:23.632Z,4.72
2022-10-31T01:26:50.158Z,2.90
2022-10-31T01:29:16.849Z,6.10
2022-10-31T01:31:43.968Z,2.15
2022-10-31T01:34:15.871Z,4.15
2022-10-31T01:36:44.485Z,8.07
2022-10-31T01:39:14.550Z,8.35
2022-10-31T01:41:44.619Z,3.60
2022-10-31T01:44:17.697Z,4.82
2022-10-31T01:47:16.834Z,2.85
2022-10-31T01:49:48.589Z,2.88
2022-10-31T01:52:21.736Z,2.97
2022-10-31T01:55:10.648Z,3.33
2022-10-31T01:57:41.276Z,2.47
2022-10-31T02:00:10.474Z,4.45
2022-10-31T02:02:37.706Z,5.07
2022-10-31T02:05:10.460Z,3.53
2022-10-31T02:08:03.283Z,4.18
2022-10-31T02:10:32.994Z,6.45
2022-10-31T02:13:03.021Z,3.13
2022-10-31T02:15:30.894Z,6.63
2022-10-31T02:17:58.041Z,9.90
2022-10-31T02:20:28.571Z,5.93
2022-10-31T02:23:21.689Z,5.95
2022-10-31T02:26:09.780Z,6.13
2022-10-31T02:29:17.327Z,6.28
2022-10-31T02:31:54.907Z,3.95
2022-10-31T02:34:34.231Z,4.07
2022-10-31T02:37:05.991Z,4.47
2022-10-31T02:39:38.678Z,4.10
2022-10-31T02:42:23.826Z,2.90
2022-10-31T02:45:01.565Z,3.55
2022-10-31T02:47:32.009Z,3.53
2022-10-31T02:50:04.099Z,2.65
2022-10-31T02:52:34.313Z,3.22
2022-10-31T02:55:14.463Z,2.80
2022-10-31T02:57:44.030Z,3.33
2022-10-31T03:00:11.267Z,4.55
2022-10-31T03:02:59.991Z,3.80
2022-10-31T03:06:04.610Z,5.57
2022-10-31T03:08:43.004Z,5.00
2022-10-31T03:11:10.687Z,10.88
2022-10-31T03:13:53.069Z,6.57
2022-10-31T03:16:49.805Z,3.40
2022-10-31T03:19:34.188Z,3.50
2022-10-31T03:22:18.832Z,4.20
2022-10-31T03:24:48.289Z,2.88
2022-10-31T03:27:18.696Z,4.97
2022-10-31T03:29:46.265Z,5.25
2022-10-31T03:32:21.689Z,5.90
2022-10-31T03:34:51.654Z,3.38
2022-10-31T03:37:21.757Z,4.00
2022-10-31T03:39:50.735Z,5.10
2022-10-31T03:42:24.802Z,4.63
2022-10-31T03:44:57.230Z,4.60
2022-10-31T03:47:24.316Z,4.00
2022-10-31T03:49:51.233Z,3.90
2022-10-31T03:52:38.817Z,8.48
2022-10-31T03:55:16.318Z,4.35
2022-10-31T03:57:54.142Z,4.50
2022-10-31T04:00:21.025Z,4.25
2022-10-31T04:03:04.965Z,4.05
2022-10-31T04:05:32.661Z,5.03
2022-10-31T04:08:02.054Z,5.43
2022-10-31T04:10:33.090Z,8.55
2022-10-31T04:13:07.182Z,4.90
2022-10-31T04:15:34.917Z,7.35
2022-10-31T04:18:04.759Z,7.22
2022-10-31T04:20:34.138Z,7.65
2022-10-31T04:23:02.116Z,5.35
2022-10-31T04:25:29.024Z,6.22
2022-10-31T04:27:56.337Z,6.55
2022-10-31T04:30:23.073Z,8.45
2022-10-31T04:32:50.066Z,7.78
2022-10-31T04:35:17.112Z,8.23
2022-10-31T04:37:44.206Z,6.85
2022-10-31T04:40:11.631Z,13.23
2022-10-31T04:42:38.189Z,7.47
2022-10-31T04:45:06.919Z,7.22
2022-10-31T04:47:34.968Z,8.07
2022-10-31T04:50:02.775Z,5.97
2022-10-31T04:52:29.506Z,7.10
2022-10-31T04:54:56.030Z,7.03
2022-10-31T04:57:22.589Z,6.40
2022-10-31T04:59:49.694Z,7.25
2022-10-31T05:02:16.480Z,8.98
2022-10-31T05:04:43.577Z,7.35
2022-10-31T05:07:11.551Z,6.57
2022-10-31T05:09:38.718Z,9.80
2022-10-31T05:12:05.787Z,8.35
2022-10-31T05:14:32.349Z,6.40
2022-10-31T05:16:59.370Z,8.20
2022-10-31T05:19:26.426Z,7.47
2022-10-31T05:21:52.920Z,10.65
2022-10-31T05:24:22.695Z,8.45
2022-10-31T05:26:50.248Z,7.65
2022-10-31T05:29:16.811Z,11.23
2022-10-31T05:31:43.740Z,9.68
2022-10-31T05:34:10.247Z,9.13
2022-10-31T05:36:36.745Z,8.13
2022-10-31T05:39:03.588Z,8.55
2022-10-31T05:41:30.125Z,10.65
2022-10-31T05:43:56.681Z,7.93
2022-10-31T05:46:23.190Z,11.40
2022-10-31T05:48:49.804Z,7.93
2022-10-31T05:51:16.424Z,12.52
2022-10-31T05:53:42.902Z,10.52
2022-10-31T05:59:56.914Z,8.00
2022-10-31T06:02:23.515Z,8.85
2022-10-31T06:04:50.223Z,10.45
2022-10-31T06:07:16.805Z,10.48
2022-10-31T06:09:43.895Z,9.05
2022-10-31T06:12:10.501Z,10.23
2022-10-31T06:14:36.986Z,10.20
2022-10-31T06:17:03.561Z,12.23
2022-10-31T06:19:30.154Z,16.23
2022-10-31T06:21:56.716Z,10.10
2022-10-31T06:24:23.530Z,10.68
2022-10-31T06:26:57.194Z,11.07
2022-10-31T06:29:24.637Z,10.07
2022-10-31T06:31:54.046Z,9.27
2022-10-31T06:34:21.073Z,10.30
2022-10-31T06:40:29.360Z,10.13
2022-10-31T06:43:01.340Z,12.10
2022-10-31T06:45:29.241Z,8.55
2022-10-31T06:48:16.109Z,9.23
2022-10-31T06:50:43.370Z,10.90
2022-10-31T06:55:42.363Z,12.45
2022-10-31T06:58:11.115Z,8.55
2022-10-31T07:00:38.169Z,12.75
2022-10-31T07:03:08.747Z,13.15
2022-10-31T07:05:35.373Z,12.98
2022-10-31T07:08:06.136Z,14.27
2022-10-31T07:10:37.447Z,14.95
2022-10-31T07:13:10.963Z,15.63
2022-10-31T07:15:39.457Z,15.55
2022-10-31T07:18:08.781Z,11.98
2022-10-31T07:20:36.541Z,13.90
2022-10-31T07:23:03.788Z,17.67
2022-10-31T07:25:30.971Z,15.07
2022-10-31T07:27:57.692Z,15.70
2022-10-31T07:30:24.625Z,17.58
2022-10-31T07:32:52.204Z,17.95
2022-10-31T07:35:26.981Z,18.88
2022-10-31T07:37:54.476Z,12.70
2022-10-31T07:40:21.593Z,17.60
2022-10-31T07:42:50.999Z,12.80
2022-10-31T07:45:20.148Z,14.13
2022-10-31T07:47:48.772Z,15.50
2022-10-31T07:50:22.402Z,16.25
2022-10-31T07:52:49.221Z,15.25
2022-10-31T07:55:16.075Z,18.95
2022-10-31T07:57:42.900Z,26.42
2022-10-31T08:00:11.058Z,18.42
2022-10-31T08:02:37.894Z,18.88
2022-10-31T08:05:04.691Z,32.08
2022-10-31T08:07:40.237Z,19.05
2022-10-31T08:10:07.692Z,21.85
2022-10-31T08:12:34.241Z,22.50
2022-10-31T08:15:00.729Z,21.55
2022-10-31T08:17:27.484Z,21.38
2022-10-31T08:19:53.979Z,21.10
2022-10-31T08:22:20.474Z,20.70
2022-10-31T08:24:46.983Z,18.67
2022-10-31T08:27:13.548Z,23.48
2022-10-31T08:29:40.081Z,16.42
2022-10-31T08:32:06.726Z,22.02
2022-10-31T08:34:33.215Z,20.80
2022-10-31T08:37:00.247Z,19.70
2022-10-31T08:39:26.708Z,19.98
2022-10-31T08:41:53.263Z,14.05
2022-10-31T08:44:22.825Z,16.83
2022-10-31T08:47:03.818Z,19.90
2022-10-31T08:49:44.511Z,20.13
2022-10-31T08:53:03.536Z,15.50
2022-10-31T08:55:24.014Z,16.35
2022-10-31T08:57:56.867Z,14.88
2022-10-31T09:00:23.765Z,23.52
2022-10-31T09:02:56.816Z,20.20
2022-10-31T09:05:23.408Z,16.95
2022-10-31T09:07:50.050Z,17.27
2022-10-31T09:10:16.720Z,20.20
2022-10-31T09:12:43.834Z,20.92
2022-10-31T09:15:10.994Z,17.48
2022-10-31T09:17:37.511Z,19.00
2022-10-31T09:20:04.604Z,15.40
2022-10-31T09:22:31.143Z,19.92
2022-10-31T09:24:57.625Z,18.70
2022-10-31T09:27:24.130Z,17.83
2022-10-31T09:29:50.781Z,18.38
2022-10-31T09:32:17.297Z,19.75
2022-10-31T09:34:43.792Z,22.55
2022-10-31T09:37:10.845Z,19.25
2022-10-31T09:39:37.409Z,20.85
2022-10-31T09:42:20.085Z,23.92
2022-10-31T09:45:07.558Z,20.05
2022-10-31T09:47:42.121Z,22.92
2022-10-31T09:50:15.168Z,18.75
2022-10-31T09:52:49.813Z,19.92
2022-10-31T09:55:21.088Z,23.88
2022-10-31T09:57:48.883Z,23.20
2022-10-31T10:00:21.156Z,17.95
2022-10-31T10:02:50.751Z,15.68
2022-10-31T10:05:29.913Z,24.08
2022-10-31T10:08:04.484Z,24.65
2022-10-31T10:10:37.056Z,13.35
2022-10-31T10:13:34.559Z,13.85
2022-10-31T10:16:07.392Z,19.67
2022-10-31T10:18:52.454Z,18.58
2022-10-31T10:21:38.947Z,12.25
2022-10-31T10:24:36.312Z,15.88
2022-10-31T10:27:43.126Z,23.75
2022-10-31T10:30:20.727Z,13.57
2022-10-31T10:32:58.566Z,13.48
2022-10-31T10:35:33.452Z,14.82
2022-10-31T10:38:12.814Z,13.48
2022-10-31T10:40:40.052Z,15.38
2022-10-31T10:43:37.263Z,13.25
2022-10-31T10:46:28.280Z,18.23
2022-10-31T10:49:23.913Z,12.48
2022-10-31T10:52:19.495Z,10.73
2022-10-31T10:55:23.662Z,11.00
2022-10-31T10:58:12.272Z,9.50
2022-10-31T11:00:47.398Z,10.85
2022-10-31T11:03:19.239Z,14.32
2022-10-31T11:06:02.817Z,14.05
2022-10-31T11:08:34.703Z,9.13
2022-10-31T11:11:26.566Z,10.77
2022-10-31T11:14:04.599Z,10.43
2022-10-31T11:16:41.032Z,10.38
2022-10-31T11:19:09.841Z,13.93
2022-10-31T11:21:36.372Z,13.30
2022-10-31T11:24:26.329Z,7.78
2022-10-31T11:27:03.863Z,11.30
2022-10-31T11:29:30.538Z,20.70
2022-10-31T11:31:59.160Z,11.75
2022-10-31T11:34:35.713Z,5.53
2022-10-31T11:37:15.942Z,8.38
2022-10-31T11:39:46.488Z,10.07
2022-10-31T11:42:14.649Z,13.88
2022-10-31T11:44:44.675Z,14.00
2022-10-31T11:47:16.625Z,10.90
2022-10-31T11:49:46.587Z,8.25
2022-10-31T11:52:43.197Z,19.83
2022-10-31T11:55:12.730Z,13.57
2022-10-31T11:57:50.909Z,14.88
2022-10-31T12:00:54.476Z,13.20
2022-10-31T12:03:23.776Z,12.80
2022-10-31T12:06:06.212Z,15.25
2022-10-31T12:08:36.325Z,16.63
2022-10-31T12:11:11.873Z,19.67
2022-10-31T12:14:01.267Z,16.67
2022-10-31T12:16:43.525Z,18.83
2022-10-31T12:19:37.088Z,18.80
2022-10-31T12:22:43.063Z,20.25
2022-10-31T12:25:34.471Z,17.40
2022-10-31T12:28:06.836Z,15.95
2022-10-31T12:30:36.219Z,17.08
2022-10-31T12:33:26.751Z,18.52
2022-10-31T12:36:22.953Z,14.50
2022-10-31T12:38:58.292Z,15.73
2022-10-31T12:41:30.923Z,18.70
2022-10-31T12:44:13.103Z,21.63
2022-10-31T12:47:05.950Z,18.80
2022-10-31T12:49:43.422Z,15.77
2022-10-31T12:52:41.206Z,18.83
2022-10-31T12:55:38.975Z,16.55
2022-10-31T12:58:24.586Z,19.02
2022-10-31T13:01:15.351Z,22.73
2022-10-31T13:04:04.217Z,25.58
2022-10-31T13:06:44.299Z,22.67
2022-10-31T13:09:17.739Z,23.10
2022-10-31T13:11:54.966Z,21.77
2022-10-31T13:14:30.909Z,28.70
2022-10-31T13:16:59.973Z,23.50
2022-10-31T13:19:33.110Z,21.88
2022-10-31T13:22:14.330Z,20.95
2022-10-31T13:24:48.333Z,23.17
2022-10-31T13:27:27.365Z,26.13
2022-10-31T13:30:04.092Z,40.72
2022-10-31T13:32:59.096Z,29.45
2022-10-31T13:35:42.917Z,23.30
2022-10-31T13:38:36.075Z,23.58
2022-10-31T13:41:05.277Z,21.05
2022-10-31T13:44:09.651Z,24.92
2022-10-31T13:49:32.398Z,24.30
2022-10-31T13:52:14.244Z,31.83
2022-10-31T13:54:56.696Z,29.35
2022-10-31T13:57:33.929Z,24.63
2022-10-31T14:00:06.715Z,23.30
2022-10-31T14:02:36.607Z,24.25
2022-10-31T14:05:09.903Z,24.05
2022-10-31T14:07:44.994Z,21.52
2022-10-31T14:10:22.855Z,27.67
2022-10-31T14:12:50.376Z,23.00
2022-10-31T14:15:28.457Z,27.38
2022-10-31T14:18:05.057Z,24.23
2022-10-31T14:20:41.527Z,24.20
2022-10-31T14:23:35.878Z,26.17
2022-10-31T14:26:41.295Z,26.80
2022-10-31T14:29:17.453Z,26.98
2022-10-31T14:31:53.563Z,24.98
2022-10-31T14:34:29.086Z,21.65
2022-10-31T14:37:14.942Z,26.60
2022-10-31T14:39:59.902Z,28.27
2022-10-31T14:42:26.355Z,25.50
2022-10-31T14:45:37.769Z,22.13
2022-10-31T14:48:31.749Z,22.98
2022-10-31T14:51:00.796Z,26.10
2022-10-31T14:53:37.039Z,26.15
2022-10-31T14:56:07.072Z,19.45
2022-10-31T14:58:39.869Z,21.80
2022-10-31T15:01:07.878Z,21.75
2022-10-31T15:03:39.461Z,23.58
2022-10-31T15:06:13.595Z,23.05
2022-10-31T15:08:46.385Z,24.50
2022-10-31T15:11:19.965Z,23.75
2022-10-31T15:13:55.087Z,26.20
2022-10-31T15:16:33.661Z,23.20
2022-10-31T15:19:04.901Z,23.02
2022-10-31T15:21:32.918Z,24.75
2022-10-31T15:24:02.747Z,22.83
2022-10-31T15:26:38.194Z,22.85
2022-10-31T15:29:17.865Z,29.65
2022-10-31T15:31:59.467Z,26.10
2022-10-31T15:34:45.151Z,19.65
2022-10-31T15:37:17.527Z,20.58
2022-10-31T15:39:45.467Z,24.13
2022-10-31T15:42:36.586Z,38.03
2022-10-31T15:45:17.340Z,19.33
2022-10-31T15:47:54.552Z,23.15
2022-10-31T15:50:41.643Z,23.75
2022-10-31T15:53:20.384Z,25.60
2022-10-31T15:55:52.447Z,24.13
2022-10-31T15:58:19.758Z,21.67
2022-10-31T16:00:57.529Z,24.83
2022-10-31T16:03:28.136Z,24.90
2022-10-31T16:06:00.108Z,28.50
2022-10-31T16:08:29.652Z,25.67
2022-10-31T16:10:58.159Z,29.25
2022-10-31T16:13:28.787Z,23.85
2022-10-31T16:16:21.363Z,23.60
2022-10-31T16:18:45.850Z,24.98
2022-10-31T16:21:13.560Z,23.98
2022-10-31T16:23:47.380Z,27.13
2022-10-31T16:26:19.749Z,33.50
2022-10-31T16:29:03.243Z,33.40
2022-10-31T16:31:39.943Z,22.20
2022-10-31T16:36:42.846Z,27.58
2022-10-31T16:39:09.580Z,29.70
2022-10-31T16:41:45.170Z,27.23
2022-10-31T16:44:24.761Z,28.83
2022-10-31T16:47:13.387Z,26.95
2022-10-31T16:49:40.469Z,30.48
2022-10-31T16:52:07.681Z,24.38
2022-10-31T16:54:34.243Z,27.33
2022-10-31T16:57:03.469Z,23.20
2022-10-31T16:59:31.446Z,27.67
2022-10-31T17:01:59.013Z,25.23
2022-10-31T17:04:25.831Z,27.08
2022-10-31T17:06:52.373Z,27.77
2022-10-31T17:09:18.954Z,29.70
2022-10-31T17:11:49.811Z,24.40
2022-10-31T17:14:17.998Z,29.35
2022-10-31T17:16:44.561Z,27.30
2022-10-31T17:19:12.460Z,26.95
2022-10-31T17:21:40.030Z,30.02
2022-10-31T17:24:08.154Z,22.13
2022-10-31T17:26:34.819Z,25.05
2022-10-31T17:29:03.495Z,26.17
2022-10-31T17:31:32.897Z,30.00
2022-10-31T17:34:02.766Z,27.00
2022-10-31T17:36:31.603Z,27.20
2022-10-31T17:38:58.797Z,32.50
2022-10-31T17:41:25.793Z,24.63
2022-10-31T17:43:56.673Z,28.00
2022-10-31T17:46:23.193Z,35.03
2022-10-31T17:48:49.939Z,29.85
2022-10-31T17:51:16.764Z,27.23
2022-10-31T17:53:43.278Z,30.90
2022-10-31T17:56:10.477Z,28.60
2022-10-31T17:58:37.914Z,25.95
2022-10-31T18:01:13.001Z,25.73
2022-10-31T18:03:40.292Z,30.83
2022-10-31T18:06:08.000Z,27.85
2022-10-31T18:08:36.542Z,33.15
2022-10-31T18:11:11.041Z,23.30
2022-10-31T18:13:38.345Z,28.55
2022-10-31T18:16:13.475Z,25.52
2022-10-31T18:18:40.915Z,23.83
2022-10-31T18:21:07.764Z,27.23
2022-10-31T18:23:34.820Z,28.95
2022-10-31T18:26:01.328Z,27.45
2022-10-31T18:28:28.277Z,31.20
2022-10-31T18:30:54.817Z,32.25
2022-10-31T18:33:21.395Z,27.52
2022-10-31T18:35:47.936Z,31.40
2022-10-31T18:38:14.546Z,26.98
2022-10-31T18:40:41.136Z,27.65
2022-10-31T18:43:07.843Z,38.35
2022-10-31T18:45:46.401Z,33.28
2022-10-31T18:48:14.858Z,34.13
2022-10-31T18:50:41.692Z,22.80
2022-10-31T18:53:09.441Z,28.10
2022-10-31T18:55:45.705Z,33.53
2022-10-31T18:58:16.955Z,37.92
2022-10-31T19:00:43.809Z,27.08
2022-10-31T19:03:10.563Z,31.67
2022-10-31T19:05:37.320Z,30.45
2022-10-31T19:08:04.714Z,34.90
2022-10-31T19:10:31.602Z,29.23
2022-10-31T19:12:58.952Z,29.35
2022-10-31T19:15:26.183Z,27.70
2022-10-31T19:17:55.981Z,28.60
2022-10-31T19:20:22.962Z,26.00
2022-10-31T19:22:52.881Z,26.70
2022-10-31T19:25:19.426Z,28.88
2022-10-31T19:27:46.101Z,31.08
2022-10-31T19:30:13.484Z,27.42
2022-10-31T19:32:40.132Z,29.63
2022-10-31T19:35:11.531Z,26.33
2022-10-31T19:37:39.841Z,25.75
2022-10-31T19:40:09.316Z,25.58
2022-10-31T19:42:36.126Z,30.73
2022-10-31T19:45:03.655Z,27.00
2022-10-31T19:47:30.971Z,25.17
2022-10-31T19:49:57.804Z,26.52
2022-10-31T19:52:24.392Z,26.95
2022-10-31T19:54:50.979Z,26.70
2022-10-31T19:57:20.550Z,27.63
2022-10-31T19:59:53.176Z,24.08
2022-10-31T20:02:21.063Z,28.05
2022-10-31T20:04:47.635Z,23.95
2022-10-31T20:07:14.191Z,22.40
2022-10-31T20:09:40.859Z,26.75
2022-10-31T20:12:07.741Z,25.95
2022-10-31T20:14:34.352Z,21.85
2022-10-31T20:17:01.259Z,28.23
2022-10-31T20:19:27.829Z,21.65
2022-10-31T20:21:54.798Z,29.67
2022-10-31T20:24:22.397Z,26.50
2022-10-31T20:26:48.968Z,21.42
2022-10-31T20:29:16.220Z,28.63
2022-10-31T20:31:44.125Z,21.90
2022-10-31T20:34:10.913Z,19.13
2022-10-31T20:36:38.015Z,20.92
2022-10-31T20:39:05.097Z,18.75
2022-10-31T20:41:32.061Z,18.55
2022-10-31T20:43:58.648Z,18.38
2022-10-31T20:46:27.470Z,12.73
2022-10-31T20:48:55.383Z,22.05
2022-10-31T20:51:28.354Z,18.73
2022-10-31T20:53:57.297Z,13.57
2022-10-31T20:56:26.458Z,22.80
2022-10-31T20:58:56.119Z,14.82
2022-10-31T21:01:29.041Z,16.83
2022-10-31T21:03:56.534Z,17.63
2022-10-31T21:06:23.608Z,14.57
2022-10-31T21:08:51.816Z,17.27
2022-10-31T21:11:21.312Z,16.25
2022-10-31T21:13:49.405Z,11.93
2022-10-31T21:16:19.724Z,16.52
2022-10-31T21:18:49.269Z,11.52
2022-10-31T21:21:19.418Z,13.05
2022-10-31T21:23:47.001Z,14.65
2022-10-31T21:26:16.219Z,11.35
2022-10-31T21:28:42.789Z,20.15
2022-10-31T21:31:12.871Z,11.73
2022-10-31T21:33:41.434Z,10.07
2022-10-31T21:36:09.300Z,16.42
2022-10-31T21:38:37.048Z,11.13
2022-10-31T21:41:12.646Z,11.40
2022-10-31T21:43:41.265Z,13.05
2022-10-31T21:46:10.818Z,12.75
2022-10-31T21:48:43.034Z,12.90
2022-10-31T21:51:12.220Z,18.00
2022-10-31T21:53:57.376Z,14.45
2022-10-31T21:56:24.624Z,10.70
2022-10-31T21:58:52.556Z,8.50
2022-10-31T22:01:20.564Z,12.90
2022-10-31T22:03:50.524Z,9.52
2022-10-31T22:06:17.497Z,14.90
2022-10-31T22:08:44.123Z,8.35
2022-10-31T22:11:14.158Z,12.25
2022-10-31T22:13:42.487Z,11.23
2022-10-31T22:16:11.849Z,12.60
2022-10-31T22:18:39.559Z,14.40
2022-10-31T22:21:17.270Z,12.00
2022-10-31T22:23:44.756Z,14.77
2022-10-31T22:26:15.496Z,8.27
2022-10-31T22:28:44.440Z,11.70
2022-10-31T22:31:14.978Z,19.55
2022-10-31T22:33:41.856Z,14.23
2022-10-31T22:36:11.924Z,9.20
2022-10-31T22:38:40.551Z,10.48
2022-10-31T22:41:09.784Z,11.90
2022-10-31T22:43:36.415Z,13.02
2022-10-31T22:46:06.284Z,12.13
2022-10-31T22:48:37.003Z,10.13
2022-10-31T22:51:15.257Z,17.88
2022-10-31T22:53:42.346Z,13.00
2022-10-31T22:56:10.825Z,5.80
2022-10-31T22:58:37.912Z,8.15
2022-10-31T23:01:10.100Z,11.20
2022-10-31T23:03:37.687Z,12.60
2022-10-31T23:06:06.884Z,10.90
2022-10-31T23:08:36.533Z,11.55
2022-10-31T23:11:13.476Z,10.30
2022-10-31T23:14:01.104Z,13.82
2022-10-31T23:16:28.076Z,10.98
2022-10-31T23:18:55.148Z,11.55
2022-10-31T23:21:44.151Z,13.43
2022-10-31T23:24:12.319Z,10.73
2022-10-31T23:26:58.873Z,9.68
2022-10-31T23:29:25.522Z,13.82
2022-10-31T23:31:54.542Z,7.13
2022-10-31T23:34:22.524Z,9.93
2022-10-31T23:36:49.296Z,10.85
2022-10-31T23:39:18.863Z,13.23
2022-10-31T23:41:48.109Z,18.38
2022-10-31T23:44:15.146Z,14.68
2022-10-31T23:46:42.116Z,10.32
2022-10-31T23:49:09.034Z,9.85
2022-10-31T23:51:36.083Z,12.38
2022-10-31T23:54:03.100Z,10.02
2022-10-31T23:56:29.649Z,12.35
2022-10-31T23:58:56.714Z,20.38
